sensor_id;sensor_type;location;lat;lon;timestamp;pressure;altitude;pressure_sealevel;temperature;humidity
4590;BME280;2307;48.448;9.216;2023-04-16T00:01:00;95308.31;;;6.25;100.00
4590;BME280;2307;48.448;9.216;2023-04-16T00:03:28;95311.56;;;6.27;100.00
4590;BME280;2307;48.448;9.216;2023-04-16T00:05:54;95312.09;;;6.35;100.00
4590;BME280;2307;48.448;9.216;2023-04-16T00:08:21;95310.50;;;6.34;100.00
4590;BME280;2307;48.448;9.216;2023-04-16T00:10:49;95305.66;;;6.31;100.00
4590;BME280;2307;48.448;9.216;2023-04-16T00:13:15;95309.72;;;6.34;100.00
4590;BME280;2307;48.448;9.216;2023-04-16T00:15:42;95313.09;;;6.34;100.00
4590;BME280;2307;48.448;9.216;2023-04-16T00:18:08;95311.91;;;6.37;100.00
4590;BME280;2307;48.448;9.216;2023-04-16T00:20:36;95311.53;;;6.33;100.00
4590;BME280;2307;48.448;9.216;2023-04-16T00:23:02;95309.47;;;6.35;100.00
4590;BME280;2307;48.448;9.216;2023-04-16T00:25:29;95315.13;;;6.39;100.00
4590;BME280;2307;48.448;9.216;2023-04-16T00:27:55;95314.19;;;6.27;100.00
4590;BME280;2307;48.448;9.216;2023-04-16T00:30:22;95312.75;;;6.31;100.00
4590;BME280;2307;48.448;9.216;2023-04-16T00:32:48;95310.16;;;6.24;100.00
4590;BME280;2307;48.448;9.216;2023-04-16T00:35:15;95311.56;;;6.27;100.00
4590;BME280;2307;48.448;9.216;2023-04-16T00:37:42;95317.78;;;6.32;100.00
4590;BME280;2307;48.448;9.216;2023-04-16T00:40:09;95307.53;;;6.24;100.00
4590;BME280;2307;48.448;9.216;2023-04-16T00:42:36;95314.19;;;6.27;100.00
4590;BME280;2307;48.448;9.216;2023-04-16T00:45:02;95318.00;;;6.31;100.00
4590;BME280;2307;48.448;9.216;2023-04-16T00:47:29;95315.31;;;6.37;100.00
4590;BME280;2307;48.448;9.216;2023-04-16T00:49:56;95318.97;;;6.36;100.00
4590;BME280;2307;48.448;9.216;2023-04-16T00:52:22;95322.84;;;6.27;100.00
4590;BME280;2307;48.448;9.216;2023-04-16T00:54:50;95320.22;;;6.27;100.00
4590;BME280;2307;48.448;9.216;2023-04-16T00:57:17;95315.56;;;6.29;100.00
4590;BME280;2307;48.448;9.216;2023-04-16T00:59:45;95324.28;;;6.23;100.00
4590;BME280;2307;48.448;9.216;2023-04-16T01:02:11;95317.19;;;6.30;100.00
4590;BME280;2307;48.448;9.216;2023-04-16T01:04:38;95323.19;;;6.37;100.00
4590;BME280;2307;48.448;9.216;2023-04-16T01:07:04;95330.03;;;6.38;100.00
4590;BME280;2307;48.448;9.216;2023-04-16T01:09:31;95323.59;;;6.34;100.00
4590;BME280;2307;48.448;9.216;2023-04-16T01:11:58;95326.41;;;6.39;100.00
4590;BME280;2307;48.448;9.216;2023-04-16T01:14:26;95324.63;;;6.33;100.00
4590;BME280;2307;48.448;9.216;2023-04-16T01:16:52;95328.84;;;6.34;100.00
4590;BME280;2307;48.448;9.216;2023-04-16T01:19:18;95329.84;;;6.40;100.00
4590;BME280;2307;48.448;9.216;2023-04-16T01:21:46;95336.50;;;6.43;100.00
4590;BME280;2307;48.448;9.216;2023-04-16T01:24:12;95332.88;;;6.44;100.00
4590;BME280;2307;48.448;9.216;2023-04-16T01:26:39;95339.28;;;6.48;100.00
4590;BME280;2307;48.448;9.216;2023-04-16T01:29:05;95339.50;;;6.46;100.00
4590;BME280;2307;48.448;9.216;2023-04-16T01:31:32;95335.41;;;6.50;100.00
4590;BME280;2307;48.448;9.216;2023-04-16T01:33:58;95341.38;;;6.32;100.00
4590;BME280;2307;48.448;9.216;2023-04-16T01:36:24;95337.09;;;6.38;100.00
4590;BME280;2307;48.448;9.216;2023-04-16T01:38:52;95334.50;;;6.31;100.00
4590;BME280;2307;48.448;9.216;2023-04-16T01:41:18;95339.53;;;6.39;100.00
4590;BME280;2307;48.448;9.216;2023-04-16T01:43:45;95341.16;;;6.40;100.00
4590;BME280;2307;48.448;9.216;2023-04-16T01:46:12;95336.91;;;6.39;100.00
4590;BME280;2307;48.448;9.216;2023-04-16T01:48:39;95342.97;;;6.40;100.00
4590;BME280;2307;48.448;9.216;2023-04-16T01:51:05;95339.91;;;6.43;100.00
4590;BME280;2307;48.448;9.216;2023-04-16T01:53:31;95341.72;;;6.43;100.00
4590;BME280;2307;48.448;9.216;2023-04-16T01:55:59;95336.28;;;6.37;100.00
4590;BME280;2307;48.448;9.216;2023-04-16T01:58:26;95339.53;;;6.39;100.00
4590;BME280;2307;48.448;9.216;2023-04-16T02:00:53;95343.13;;;6.45;100.00
4590;BME280;2307;48.448;9.216;2023-04-16T02:03:19;95347.59;;;6.38;100.00
4590;BME280;2307;48.448;9.216;2023-04-16T02:05:48;95348.63;;;6.37;100.00
4590;BME280;2307;48.448;9.216;2023-04-16T02:08:14;95349.59;;;6.43;100.00
4590;BME280;2307;48.448;9.216;2023-04-16T02:10:41;95341.78;;;6.36;100.00
4590;BME280;2307;48.448;9.216;2023-04-16T02:13:08;95341.31;;;6.46;100.00
4590;BME280;2307;48.448;9.216;2023-04-16T02:15:35;95338.88;;;6.44;100.00
4590;BME280;2307;48.448;9.216;2023-04-16T02:18:01;95343.28;;;6.50;100.00
4590;BME280;2307;48.448;9.216;2023-04-16T02:20:28;95342.34;;;6.38;100.00
4590;BME280;2307;48.448;9.216;2023-04-16T02:22:54;95343.38;;;6.37;100.00
4590;BME280;2307;48.448;9.216;2023-04-16T02:25:20;95340.41;;;6.27;100.00
4590;BME280;2307;48.448;9.216;2023-04-16T02:27:48;95344.00;;;6.32;100.00
4590;BME280;2307;48.448;9.216;2023-04-16T02:30:16;95342.16;;;6.39;100.00
4590;BME280;2307;48.448;9.216;2023-04-16T02:32:42;95341.72;;;6.43;100.00
4590;BME280;2307;48.448;9.216;2023-04-16T02:35:09;95347.41;;;6.39;100.00
4590;BME280;2307;48.448;9.216;2023-04-16T02:37:35;95353.06;;;6.36;100.00
4590;BME280;2307;48.448;9.216;2023-04-16T02:40:05;95357.50;;;6.36;100.00
4590;BME280;2307;48.448;9.216;2023-04-16T02:42:31;95359.72;;;6.39;100.00
4590;BME280;2307;48.448;9.216;2023-04-16T02:44:58;95361.09;;;6.41;100.00
4590;BME280;2307;48.448;9.216;2023-04-16T02:47:25;95355.47;;;6.38;100.00
4590;BME280;2307;48.448;9.216;2023-04-16T02:49:52;95356.13;;;6.33;100.00
4590;BME280;2307;48.448;9.216;2023-04-16T02:52:18;95357.69;;;6.34;100.00
4590;BME280;2307;48.448;9.216;2023-04-16T02:54:44;95356.88;;;6.40;100.00
4590;BME280;2307;48.448;9.216;2023-04-16T02:57:11;95352.66;;;6.39;100.00
4590;BME280;2307;48.448;9.216;2023-04-16T02:59:37;95357.63;;;6.48;100.00
4590;BME280;2307;48.448;9.216;2023-04-16T03:02:03;95359.31;;;6.35;100.00
4590;BME280;2307;48.448;9.216;2023-04-16T03:04:32;95365.16;;;6.37;100.00
4590;BME280;2307;48.448;9.216;2023-04-16T03:06:59;95352.25;;;6.36;100.00
4590;BME280;2307;48.448;9.216;2023-04-16T03:09:25;95353.06;;;6.36;100.00
4590;BME280;2307;48.448;9.216;2023-04-16T03:11:52;95358.34;;;6.30;100.00
4590;BME280;2307;48.448;9.216;2023-04-16T03:14:18;95364.81;;;6.27;100.00
4590;BME280;2307;48.448;9.216;2023-04-16T03:16:44;95360.34;;;6.28;100.00
4590;BME280;2307;48.448;9.216;2023-04-16T03:19:11;95362.41;;;6.19;100.00
4590;BME280;2307;48.448;9.216;2023-04-16T03:21:39;95367.22;;;6.29;100.00
4590;BME280;2307;48.448;9.216;2023-04-16T03:24:05;95370.84;;;6.28;100.00
4590;BME280;2307;48.448;9.216;2023-04-16T03:26:31;95371.47;;;6.23;100.00
4590;BME280;2307;48.448;9.216;2023-04-16T03:28:58;95368.28;;;6.21;100.00
4590;BME280;2307;48.448;9.216;2023-04-16T03:31:26;95376.50;;;6.25;100.00
4590;BME280;2307;48.448;9.216;2023-04-16T03:33:52;95369.03;;;6.28;100.00
4590;BME280;2307;48.448;9.216;2023-04-16T03:36:19;95373.31;;;6.16;100.00
4590;BME280;2307;48.448;9.216;2023-04-16T03:38:48;95380.59;;;6.14;100.00
4590;BME280;2307;48.448;9.216;2023-04-16T03:41:14;95373.72;;;6.20;100.00
4590;BME280;2307;48.448;9.216;2023-04-16T03:43:41;95386.56;;;6.28;100.00
4590;BME280;2307;48.448;9.216;2023-04-16T03:46:07;95384.59;;;6.23;100.00
4590;BME280;2307;48.448;9.216;2023-04-16T03:48:33;95375.09;;;6.22;100.00
4590;BME280;2307;48.448;9.216;2023-04-16T03:51:00;95376.72;;;6.23;100.00
4590;BME280;2307;48.448;9.216;2023-04-16T03:53:26;95381.59;;;6.13;100.00
4590;BME280;2307;48.448;9.216;2023-04-16T03:55:54;95383.38;;;6.19;100.00
4590;BME280;2307;48.448;9.216;2023-04-16T03:58:21;95383.19;;;6.21;100.00
4590;BME280;2307;48.448;9.216;2023-04-16T04:00:47;95384.00;;;6.21;100.00
4590;BME280;2307;48.448;9.216;2023-04-16T04:03:13;95380.19;;;6.17;100.00
4590;BME280;2307;48.448;9.216;2023-04-16T04:05:41;95380.16;;;6.24;100.00
4590;BME280;2307;48.448;9.216;2023-04-16T04:08:07;95384.19;;;6.26;100.00
4590;BME280;2307;48.448;9.216;2023-04-16T04:10:34;95379.75;;;6.20;100.00
4590;BME280;2307;48.448;9.216;2023-04-16T04:13:02;95386.22;;;6.24;100.00
4590;BME280;2307;48.448;9.216;2023-04-16T04:15:28;95386.63;;;6.21;100.00
4590;BME280;2307;48.448;9.216;2023-04-16T04:17:55;95387.38;;;6.28;100.00
4590;BME280;2307;48.448;9.216;2023-04-16T04:20:21;95394.50;;;6.21;100.00
4590;BME280;2307;48.448;9.216;2023-04-16T04:22:48;95390.44;;;6.19;100.00
4590;BME280;2307;48.448;9.216;2023-04-16T04:25:15;95392.22;;;6.31;100.00
4590;BME280;2307;48.448;9.216;2023-04-16T04:27:42;95397.88;;;6.28;100.00
4590;BME280;2307;48.448;9.216;2023-04-16T04:30:10;95390.44;;;6.25;100.00
4590;BME280;2307;48.448;9.216;2023-04-16T04:32:37;95406.78;;;6.27;100.00
4590;BME280;2307;48.448;9.216;2023-04-16T04:35:03;95408.59;;;6.27;100.00
4590;BME280;2307;48.448;9.216;2023-04-16T04:37:30;95407.63;;;6.21;100.00
4590;BME280;2307;48.448;9.216;2023-04-16T04:39:56;95410.00;;;6.29;100.00
4590;BME280;2307;48.448;9.216;2023-04-16T04:42:23;95410.41;;;6.26;100.00
4590;BME280;2307;48.448;9.216;2023-04-16T04:44:49;95409.19;;;6.29;100.00
4590;BME280;2307;48.448;9.216;2023-04-16T04:47:17;95422.06;;;6.37;100.00
4590;BME280;2307;48.448;9.216;2023-04-16T04:49:43;95419.91;;;6.27;100.00
4590;BME280;2307;48.448;9.216;2023-04-16T04:52:09;95422.50;;;6.34;100.00
4590;BME280;2307;48.448;9.216;2023-04-16T04:54:36;95427.13;;;6.25;100.00
4590;BME280;2307;48.448;9.216;2023-04-16T04:57:05;95422.13;;;6.24;100.00
4590;BME280;2307;48.448;9.216;2023-04-16T04:59:32;95425.72;;;6.29;100.00
4590;BME280;2307;48.448;9.216;2023-04-16T05:01:58;95430.16;;;6.29;100.00
4590;BME280;2307;48.448;9.216;2023-04-16T05:04:27;95428.94;;;6.31;100.00
4590;BME280;2307;48.448;9.216;2023-04-16T05:06:54;95436.22;;;6.29;100.00
4590;BME280;2307;48.448;9.216;2023-04-16T05:09:20;95432.97;;;6.40;100.00
4590;BME280;2307;48.448;9.216;2023-04-16T05:11:46;95437.84;;;6.30;100.00
4590;BME280;2307;48.448;9.216;2023-04-16T05:14:13;95434.19;;;6.31;100.00
4590;BME280;2307;48.448;9.216;2023-04-16T05:16:39;95442.69;;;6.27;100.00
4590;BME280;2307;48.448;9.216;2023-04-16T05:19:06;95454.34;;;6.37;100.00
4590;BME280;2307;48.448;9.216;2023-04-16T05:21:33;95447.06;;;6.46;100.00
4590;BME280;2307;48.448;9.216;2023-04-16T05:24:00;95451.91;;;6.43;100.00
4590;BME280;2307;48.448;9.216;2023-04-16T05:26:26;95455.13;;;6.45;100.00
4590;BME280;2307;48.448;9.216;2023-04-16T05:28:53;95452.75;;;6.36;100.00
4590;BME280;2307;48.448;9.216;2023-04-16T05:31:19;95459.22;;;6.34;100.00
4590;BME280;2307;48.448;9.216;2023-04-16T05:33:45;95458.41;;;6.33;100.00
4590;BME280;2307;48.448;9.216;2023-04-16T05:36:12;95464.06;;;6.30;100.00
4590;BME280;2307;48.448;9.216;2023-04-16T05:38:39;95460.41;;;6.25;100.00
4590;BME280;2307;48.448;9.216;2023-04-16T05:41:06;95468.91;;;6.33;100.00
4590;BME280;2307;48.448;9.216;2023-04-16T05:43:32;95469.47;;;6.35;100.00
4590;BME280;2307;48.448;9.216;2023-04-16T05:45:58;95468.47;;;6.36;100.00
4590;BME280;2307;48.448;9.216;2023-04-16T05:48:25;95470.72;;;6.33;100.00
4590;BME280;2307;48.448;9.216;2023-04-16T05:50:51;95469.72;;;6.34;100.00
4590;BME280;2307;48.448;9.216;2023-04-16T05:53:18;95478.00;;;6.24;100.00
4590;BME280;2307;48.448;9.216;2023-04-16T05:55:45;95469.09;;;6.25;100.00
4590;BME280;2307;48.448;9.216;2023-04-16T05:58:12;95481.41;;;6.25;100.00
4590;BME280;2307;48.448;9.216;2023-04-16T06:00:38;95488.06;;;6.27;100.00
4590;BME280;2307;48.448;9.216;2023-04-16T06:03:05;95487.44;;;6.32;100.00
4590;BME280;2307;48.448;9.216;2023-04-16T06:05:31;95493.50;;;6.32;100.00
4590;BME280;2307;48.448;9.216;2023-04-16T06:07:58;95496.34;;;6.24;100.00
4590;BME280;2307;48.448;9.216;2023-04-16T06:10:24;95496.94;;;6.26;100.00
4590;BME280;2307;48.448;9.216;2023-04-16T06:12:52;95489.06;;;6.33;100.00
4590;BME280;2307;48.448;9.216;2023-04-16T06:15:18;95497.75;;;6.27;100.00
4590;BME280;2307;48.448;9.216;2023-04-16T06:17:45;95494.50;;;6.31;100.00
4590;BME280;2307;48.448;9.216;2023-04-16T06:20:11;95494.31;;;6.33;100.00
4590;BME280;2307;48.448;9.216;2023-04-16T06:22:38;95495.31;;;6.38;100.00
4590;BME280;2307;48.448;9.216;2023-04-16T06:25:05;95493.09;;;6.35;100.00
4590;BME280;2307;48.448;9.216;2023-04-16T06:27:31;95496.69;;;6.41;100.00
4590;BME280;2307;48.448;9.216;2023-04-16T06:29:59;95501.34;;;6.39;100.00
4590;BME280;2307;48.448;9.216;2023-04-16T06:32:26;95504.97;;;6.38;100.00
4590;BME280;2307;48.448;9.216;2023-04-16T06:34:52;95501.19;;;6.34;100.00
4590;BME280;2307;48.448;9.216;2023-04-16T06:37:20;95500.53;;;6.38;100.00
4590;BME280;2307;48.448;9.216;2023-04-16T06:39:46;95502.34;;;6.38;100.00
4590;BME280;2307;48.448;9.216;2023-04-16T06:42:14;95510.25;;;6.25;100.00
4590;BME280;2307;48.448;9.216;2023-04-16T06:44:40;95506.03;;;6.30;100.00
4590;BME280;2307;48.448;9.216;2023-04-16T06:47:08;95517.69;;;6.34;100.00
4590;BME280;2307;48.448;9.216;2023-04-16T06:49:34;95508.44;;;6.32;100.00
4590;BME280;2307;48.448;9.216;2023-04-16T06:52:00;95510.88;;;6.33;100.00
4590;BME280;2307;48.448;9.216;2023-04-16T06:54:27;95510.88;;;6.33;100.00
4590;BME280;2307;48.448;9.216;2023-04-16T06:56:53;95519.31;;;6.35;100.00
4590;BME280;2307;48.448;9.216;2023-04-16T06:59:20;95525.97;;;6.31;100.00
4590;BME280;2307;48.448;9.216;2023-04-16T07:01:46;95529.41;;;6.38;100.00
4590;BME280;2307;48.448;9.216;2023-04-16T07:04:14;95527.00;;;6.30;100.00
4590;BME280;2307;48.448;9.216;2023-04-16T07:06:40;95531.03;;;6.33;100.00
4590;BME280;2307;48.448;9.216;2023-04-16T07:09:07;95532.84;;;6.32;100.00
4590;BME280;2307;48.448;9.216;2023-04-16T07:11:33;95530.03;;;6.27;100.00
4590;BME280;2307;48.448;9.216;2023-04-16T07:14:00;95531.44;;;6.23;100.00
4590;BME280;2307;48.448;9.216;2023-04-16T07:16:26;95529.22;;;6.33;100.00
4590;BME280;2307;48.448;9.216;2023-04-16T07:18:52;95534.25;;;6.28;100.00
4590;BME280;2307;48.448;9.216;2023-04-16T07:21:20;95530.25;;;6.19;100.00
4590;BME280;2307;48.448;9.216;2023-04-16T07:23:47;95531.22;;;6.25;100.00
4590;BME280;2307;48.448;9.216;2023-04-16T07:26:13;95541.72;;;6.31;100.00
4590;BME280;2307;48.448;9.216;2023-04-16T07:28:40;95531.03;;;6.33;100.00
4590;BME280;2307;48.448;9.216;2023-04-16T07:31:06;95536.69;;;6.36;100.00
4590;BME280;2307;48.448;9.216;2023-04-16T07:33:33;95537.88;;;6.40;100.00
4590;BME280;2307;48.448;9.216;2023-04-16T07:35:59;95555.22;;;6.41;100.00
4590;BME280;2307;48.448;9.216;2023-04-16T07:38:27;95547.34;;;6.41;100.00
4590;BME280;2307;48.448;9.216;2023-04-16T07:40:54;95547.16;;;6.36;100.00
4590;BME280;2307;48.448;9.216;2023-04-16T07:43:20;95555.44;;;6.33;100.00
4590;BME280;2307;48.448;9.216;2023-04-16T07:45:46;95561.50;;;6.34;100.00
4590;BME280;2307;48.448;9.216;2023-04-16T07:48:13;95561.88;;;6.37;100.00
4590;BME280;2307;48.448;9.216;2023-04-16T07:50:39;95559.25;;;6.37;100.00
4590;BME280;2307;48.448;9.216;2023-04-16T07:53:07;95558.06;;;6.47;100.00
4590;BME280;2307;48.448;9.216;2023-04-16T07:55:35;95554.34;;;6.67;100.00
4590;BME280;2307;48.448;9.216;2023-04-16T07:58:01;95566.91;;;6.59;100.00
4590;BME280;2307;48.448;9.216;2023-04-16T08:00:28;95569.31;;;6.54;100.00
4590;BME280;2307;48.448;9.216;2023-04-16T08:02:54;95564.06;;;6.54;100.00
4590;BME280;2307;48.448;9.216;2023-04-16T08:05:21;95577.00;;;6.49;100.00
4590;BME280;2307;48.448;9.216;2023-04-16T08:07:48;95580.03;;;6.52;100.00
4590;BME280;2307;48.448;9.216;2023-04-16T08:10:14;95568.97;;;6.44;100.00
4590;BME280;2307;48.448;9.216;2023-04-16T08:12:42;95575.38;;;6.48;100.00
4590;BME280;2307;48.448;9.216;2023-04-16T08:15:08;95570.75;;;6.50;100.00
4590;BME280;2307;48.448;9.216;2023-04-16T08:17:35;95585.06;;;6.47;100.00
4590;BME280;2307;48.448;9.216;2023-04-16T08:20:02;95588.72;;;6.46;100.00
4590;BME280;2307;48.448;9.216;2023-04-16T08:22:28;95594.56;;;6.48;100.00
4590;BME280;2307;48.448;9.216;2023-04-16T08:24:54;95595.38;;;6.49;100.00
4590;BME280;2307;48.448;9.216;2023-04-16T08:27:21;95597.97;;;6.62;100.00
4590;BME280;2307;48.448;9.216;2023-04-16T08:29:49;95602.41;;;6.68;100.00
4590;BME280;2307;48.448;9.216;2023-04-16T08:32:15;95599.97;;;6.66;100.00
4590;BME280;2307;48.448;9.216;2023-04-16T08:34:42;95604.63;;;6.64;100.00
4590;BME280;2307;48.448;9.216;2023-04-16T08:37:08;95605.44;;;6.58;100.00
4590;BME280;2307;48.448;9.216;2023-04-16T08:39:35;95605.47;;;6.45;100.00
4590;BME280;2307;48.448;9.216;2023-04-16T08:42:03;95610.88;;;6.57;100.00
4590;BME280;2307;48.448;9.216;2023-04-16T08:44:30;95607.28;;;6.45;100.00
4590;BME280;2307;48.448;9.216;2023-04-16T08:46:59;95601.84;;;6.46;100.00
4590;BME280;2307;48.448;9.216;2023-04-16T08:49:26;95609.28;;;6.62;100.00
4590;BME280;2307;48.448;9.216;2023-04-16T08:51:53;95606.47;;;6.57;100.00
4590;BME280;2307;48.448;9.216;2023-04-16T08:54:24;95611.69;;;6.70;100.00
4590;BME280;2307;48.448;9.216;2023-04-16T08:56:54;95618.56;;;6.71;100.00
4590;BME280;2307;48.448;9.216;2023-04-16T08:59:23;95624.41;;;6.67;100.00
4590;BME280;2307;48.448;9.216;2023-04-16T09:01:50;95618.16;;;6.55;100.00
4590;BME280;2307;48.448;9.216;2023-04-16T09:04:18;95627.25;;;6.59;100.00
4590;BME280;2307;48.448;9.216;2023-04-16T09:06:46;95620.19;;;6.59;100.00
4590;BME280;2307;48.448;9.216;2023-04-16T09:09:13;95624.41;;;6.67;100.00
4590;BME280;2307;48.448;9.216;2023-04-16T09:11:41;95626.63;;;6.57;100.00
4590;BME280;2307;48.448;9.216;2023-04-16T09:14:08;95629.88;;;6.59;100.00
4590;BME280;2307;48.448;9.216;2023-04-16T09:16:36;95629.66;;;6.67;100.00
4590;BME280;2307;48.448;9.216;2023-04-16T09:19:02;95637.94;;;6.70;100.00
4590;BME280;2307;48.448;9.216;2023-04-16T09:21:30;95634.91;;;6.73;100.00
4590;BME280;2307;48.448;9.216;2023-04-16T09:23:57;95640.53;;;6.77;100.00
4590;BME280;2307;48.448;9.216;2023-04-16T09:26:25;95637.34;;;6.75;100.00
4590;BME280;2307;48.448;9.216;2023-04-16T09:28:52;95634.72;;;6.68;100.00
4590;BME280;2307;48.448;9.216;2023-04-16T09:31:18;95638.53;;;6.72;100.00
4590;BME280;2307;48.448;9.216;2023-04-16T09:33:59;95635.69;;;6.80;100.00
4590;BME280;2307;48.448;9.216;2023-04-16T09:36:26;95640.31;;;6.85;100.00
4590;BME280;2307;48.448;9.216;2023-04-16T09:38:54;95648.00;;;6.86;100.00
4590;BME280;2307;48.448;9.216;2023-04-16T09:41:23;95640.53;;;6.90;100.00
4590;BME280;2307;48.448;9.216;2023-04-16T09:43:53;95645.56;;;6.85;100.00
4590;BME280;2307;48.448;9.216;2023-04-16T09:46:21;95648.41;;;6.90;100.00
4590;BME280;2307;48.448;9.216;2023-04-16T09:48:47;95648.78;;;6.93;100.00
4590;BME280;2307;48.448;9.216;2023-04-16T09:51:14;95646.34;;;6.92;100.00
4590;BME280;2307;48.448;9.216;2023-04-16T09:53:40;95652.66;;;6.91;100.00
4590;BME280;2307;48.448;9.216;2023-04-16T09:56:10;95649.59;;;6.94;100.00
4590;BME280;2307;48.448;9.216;2023-04-16T09:58:37;95651.03;;;6.90;100.00
4590;BME280;2307;48.448;9.216;2023-04-16T10:01:04;95657.06;;;6.97;100.00
4590;BME280;2307;48.448;9.216;2023-04-16T10:03:32;95658.47;;;7.00;100.00
4590;BME280;2307;48.448;9.216;2023-04-16T10:05:59;95650.78;;;6.98;100.00
4590;BME280;2307;48.448;9.216;2023-04-16T10:08:26;95655.03;;;6.99;100.00
4590;BME280;2307;48.448;9.216;2023-04-16T10:10:53;95649.59;;;6.94;100.00
4590;BME280;2307;48.448;9.216;2023-04-16T10:13:23;95649.97;;;7.04;100.00
4590;BME280;2307;48.448;9.216;2023-04-16T10:15:52;95653.19;;;7.13;100.00
4590;BME280;2307;48.448;9.216;2023-04-16T10:18:20;95658.03;;;7.09;100.00
4590;BME280;2307;48.448;9.216;2023-04-16T10:20:47;95658.84;;;7.16;100.00
4590;BME280;2307;48.448;9.216;2023-04-16T10:23:14;95656.81;;;7.12;100.00
4590;BME280;2307;48.448;9.216;2023-04-16T10:25:41;95668.31;;;7.17;100.00
4590;BME280;2307;48.448;9.216;2023-04-16T10:28:07;95667.91;;;7.20;100.00
4590;BME280;2307;48.448;9.216;2023-04-16T10:30:35;95665.50;;;7.12;100.00
4590;BME280;2307;48.448;9.216;2023-04-16T10:33:02;95671.34;;;7.14;100.00
4590;BME280;2307;48.448;9.216;2023-04-16T10:35:30;95668.53;;;7.16;100.00
4590;BME280;2307;48.448;9.216;2023-04-16T10:37:56;95674.41;;;7.11;100.00
4590;BME280;2307;48.448;9.216;2023-04-16T10:40:23;95674.59;;;7.16;100.00
4590;BME280;2307;48.448;9.216;2023-04-16T10:42:56;95671.38;;;7.08;100.00
4590;BME280;2307;48.448;9.216;2023-04-16T10:45:28;95674.00;;;7.01;100.00
4590;BME280;2307;48.448;9.216;2023-04-16T10:47:56;95670.56;;;7.07;100.00
4590;BME280;2307;48.448;9.216;2023-04-16T10:50:22;95675.38;;;7.23;100.00
4590;BME280;2307;48.448;9.216;2023-04-16T10:52:53;95680.25;;;7.20;100.00
4590;BME280;2307;48.448;9.216;2023-04-16T10:55:40;95678.59;;;7.25;100.00
4590;BME280;2307;48.448;9.216;2023-04-16T11:00:48;95668.94;;;7.19;100.00
4590;BME280;2307;48.448;9.216;2023-04-16T11:03:17;95667.75;;;7.09;100.00
4590;BME280;2307;48.448;9.216;2023-04-16T11:05:43;95666.91;;;7.21;100.00
4590;BME280;2307;48.448;9.216;2023-04-16T11:08:16;95669.75;;;7.13;100.00
4590;BME280;2307;48.448;9.216;2023-04-16T11:10:43;95668.28;;;7.24;100.00
4590;BME280;2307;48.448;9.216;2023-04-16T11:13:09;95671.56;;;7.19;100.00
4590;BME280;2307;48.448;9.216;2023-04-16T11:15:37;95670.75;;;7.12;100.00
4590;BME280;2307;48.448;9.216;2023-04-16T11:18:04;95678.84;;;7.11;100.00
4590;BME280;2307;48.448;9.216;2023-04-16T11:20:32;95675.06;;;6.93;100.00
4590;BME280;2307;48.448;9.216;2023-04-16T11:22:58;95681.94;;;6.88;100.00
4590;BME280;2307;48.448;9.216;2023-04-16T11:25:25;95685.75;;;6.92;100.00
4590;BME280;2307;48.448;9.216;2023-04-16T11:27:53;95678.50;;;6.94;100.00
4590;BME280;2307;48.448;9.216;2023-04-16T11:30:27;95683.72;;;7.01;100.00
4590;BME280;2307;48.448;9.216;2023-04-16T11:32:53;95685.16;;;6.97;100.00
4590;BME280;2307;48.448;9.216;2023-04-16T11:35:20;95684.13;;;6.98;100.00
4590;BME280;2307;48.448;9.216;2023-04-16T11:37:54;95685.09;;;7.16;100.00
4590;BME280;2307;48.448;9.216;2023-04-16T11:40:20;95690.78;;;7.13;100.00
4590;BME280;2307;48.448;9.216;2023-04-16T11:42:47;95687.78;;;6.97;100.00
4590;BME280;2307;48.448;9.216;2023-04-16T11:45:13;95680.72;;;6.97;100.00
4590;BME280;2307;48.448;9.216;2023-04-16T11:47:43;95691.56;;;7.07;100.00
4590;BME280;2307;48.448;9.216;2023-04-16T11:50:17;95686.53;;;7.12;100.00
4590;BME280;2307;48.448;9.216;2023-04-16T11:52:44;95690.56;;;7.08;100.00
4590;BME280;2307;48.448;9.216;2023-04-16T11:58:11;95693.19;;;7.08;100.00
4590;BME280;2307;48.448;9.216;2023-04-16T12:00:39;95692.38;;;7.14;100.00
4590;BME280;2307;48.448;9.216;2023-04-16T12:03:05;95695.00;;;7.08;100.00
4590;BME280;2307;48.448;9.216;2023-04-16T12:05:32;95694.00;;;7.02;100.00
4590;BME280;2307;48.448;9.216;2023-04-16T12:07:59;95694.59;;;7.11;100.00
4590;BME280;2307;48.448;9.216;2023-04-16T12:10:26;95708.53;;;7.11;100.00
4590;BME280;2307;48.448;9.216;2023-04-16T12:12:52;95708.91;;;7.21;100.00
4590;BME280;2307;48.448;9.216;2023-04-16T12:18:24;95712.13;;;7.23;100.00
4590;BME280;2307;48.448;9.216;2023-04-16T12:20:51;95701.25;;;7.20;100.00
4590;BME280;2307;48.448;9.216;2023-04-16T12:23:21;95699.19;;;7.35;100.00
4590;BME280;2307;48.448;9.216;2023-04-16T12:28:34;95708.03;;;7.47;100.00
4590;BME280;2307;48.448;9.216;2023-04-16T12:31:02;95699.16;;;7.48;100.00
4590;BME280;2307;48.448;9.216;2023-04-16T12:33:30;95709.66;;;7.48;100.00
4590;BME280;2307;48.448;9.216;2023-04-16T12:35:57;95700.34;;;7.45;100.00
4590;BME280;2307;48.448;9.216;2023-04-16T12:38:23;95699.97;;;7.42;100.00
4590;BME280;2307;48.448;9.216;2023-04-16T12:40:50;95697.97;;;7.37;100.00
4590;BME280;2307;48.448;9.216;2023-04-16T12:43:20;95707.66;;;7.37;100.00
4590;BME280;2307;48.448;9.216;2023-04-16T12:45:47;95706.25;;;7.41;100.00
4590;BME280;2307;48.448;9.216;2023-04-16T12:51:17;95711.31;;;7.29;100.00
4590;BME280;2307;48.448;9.216;2023-04-16T12:53:44;95714.97;;;7.28;100.00
4590;BME280;2307;48.448;9.216;2023-04-16T12:56:10;95711.31;;;7.29;100.00
4590;BME280;2307;48.448;9.216;2023-04-16T12:58:37;95708.50;;;7.31;100.00
4590;BME280;2307;48.448;9.216;2023-04-16T13:01:03;95711.28;;;7.36;100.00
4590;BME280;2307;48.448;9.216;2023-04-16T13:03:32;95712.28;;;7.48;100.00
4590;BME280;2307;48.448;9.216;2023-04-16T13:06:00;95707.63;;;7.50;100.00
4590;BME280;2307;48.448;9.216;2023-04-16T13:08:28;95710.88;;;7.45;100.00
4590;BME280;2307;48.448;9.216;2023-04-16T13:10:54;95712.91;;;7.43;100.00
4590;BME280;2307;48.448;9.216;2023-04-16T13:16:19;95710.88;;;7.45;100.00
4590;BME280;2307;48.448;9.216;2023-04-16T13:18:45;95704.00;;;7.44;100.00
4590;BME280;2307;48.448;9.216;2023-04-16T13:21:12;95702.78;;;7.47;100.00
4590;BME280;2307;48.448;9.216;2023-04-16T13:23:39;95696.94;;;7.45;100.00
4590;BME280;2307;48.448;9.216;2023-04-16T13:26:06;95695.50;;;7.42;100.00
4590;BME280;2307;48.448;9.216;2023-04-16T13:28:32;95700.78;;;7.36;100.00
4590;BME280;2307;48.448;9.216;2023-04-16T13:30:59;95695.72;;;7.47;100.00
4590;BME280;2307;48.448;9.216;2023-04-16T13:33:25;95700.78;;;7.42;100.00
4590;BME280;2307;48.448;9.216;2023-04-16T13:35:52;95705.00;;;7.50;100.00
4590;BME280;2307;48.448;9.216;2023-04-16T13:38:18;95710.44;;;7.48;100.00